Time;durP1;ratioP1;P1;durP2;ratioP2;P2;SDS_P1;SDS_P2;PMS_P1;PMS_P2;Temp;Humidity;BMP_temperature;BMP_pressure;BME280_temperature;BME280_humidity;BME280_pressure;Samples;Min_cycle;Max_cycle;Signal;HPM_P1;HPM_P2
2022/04/06 00:00:46;;;;;;;20.15;11.15;;;8.70;99.90;;;;;;5023455;28;20164;-67
2022/04/06 00:03:13;;;;;;;26.00;11.20;;;8.70;99.90;;;;;;5023315;28;20057;-67
2022/04/06 00:05:38;;;;;;;27.73;11.35;;;8.70;99.90;;;;;;5001830;28;20111;-67
2022/04/06 00:08:04;;;;;;;28.08;11.93;;;8.70;99.90;;;;;;5019635;28;20515;-67
2022/04/06 00:10:31;;;;;;;26.25;11.48;;;8.70;99.90;;;;;;5020020;28;20112;-67
2022/04/06 00:13:00;;;;;;;25.25;11.80;;;8.70;99.90;;;;;;5020409;28;20150;-67
2022/04/06 00:15:26;;;;;;;23.80;12.10;;;8.70;99.90;;;;;;5027055;28;20033;-67
2022/04/06 00:17:53;;;;;;;27.90;12.07;;;8.70;99.90;;;;;;5025147;28;20033;-67
2022/04/06 00:20:18;;;;;;;21.02;12.20;;;8.70;99.90;;;;;;5009437;28;20099;-67
2022/04/06 00:22:44;;;;;;;24.55;12.45;;;8.80;99.90;;;;;;5007279;28;20030;-67
2022/04/06 00:25:10;;;;;;;28.63;13.88;;;8.80;99.90;;;;;;5028645;28;20060;-67
2022/04/06 00:27:36;;;;;;;25.00;13.52;;;8.70;99.90;;;;;;5027788;28;20049;-67
2022/04/06 00:30:04;;;;;;;26.58;14.77;;;8.80;99.90;;;;;;5025949;28;20033;-67
2022/04/06 00:32:29;;;;;;;26.13;13.95;;;8.80;99.90;;;;;;5025019;28;20111;-67
2022/04/06 00:37:40;;;;;;;27.58;15.07;;;8.80;99.90;;;;;;5023935;28;20111;-67
2022/04/06 00:40:08;;;;;;;29.13;15.30;;;8.70;99.90;;;;;;5025063;28;20125;-67
2022/04/06 00:42:34;;;;;;;21.75;14.43;;;8.70;99.90;;;;;;5022207;28;20029;-67
2022/04/06 00:45:00;;;;;;;27.73;13.63;;;8.80;99.90;;;;;;5005608;28;20045;-67
2022/04/06 00:47:26;;;;;;;31.00;14.30;;;8.80;99.90;;;;;;5024872;28;20037;-67
2022/04/06 00:49:52;;;;;;;23.58;13.95;;;8.80;99.90;;;;;;5023661;28;20124;-67
2022/04/06 00:52:20;;;;;;;25.80;13.90;;;8.70;99.90;;;;;;5026859;28;20148;-67
2022/04/06 00:54:47;;;;;;;27.40;13.32;;;8.80;99.90;;;;;;5010556;28;20114;-67
2022/04/06 00:57:13;;;;;;;24.08;12.70;;;8.80;99.90;;;;;;5009067;28;20042;-67
2022/04/06 00:59:41;;;;;;;25.90;13.25;;;8.80;99.90;;;;;;5025527;28;20030;-67
2022/04/06 01:02:08;;;;;;;26.25;13.57;;;8.80;99.90;;;;;;5022331;28;20766;-67
2022/04/06 01:04:33;;;;;;;33.28;12.35;;;8.80;99.90;;;;;;5024820;28;20052;-67
2022/04/06 01:06:59;;;;;;;30.20;13.23;;;8.70;99.90;;;;;;5023455;28;21775;-67
2022/04/06 01:09:27;;;;;;;28.13;12.88;;;8.70;99.90;;;;;;5022838;28;20042;-67
2022/04/06 01:11:53;;;;;;;27.55;13.43;;;8.70;99.90;;;;;;5024154;28;20065;-67
2022/04/06 01:14:19;;;;;;;25.55;13.13;;;8.70;99.90;;;;;;5025379;28;20410;-67
2022/04/06 01:17:02;;;;;;;29.02;13.50;;;8.80;99.90;;;;;;5022870;28;20088;-67
2022/04/06 01:19:33;;;;;;;28.30;12.10;;;8.70;99.90;;;;;;5006620;28;20049;-67
2022/04/06 01:21:59;;;;;;;28.05;12.25;;;8.80;99.90;;;;;;5024053;28;20073;-67
2022/04/06 01:24:24;;;;;;;24.80;12.07;;;8.70;99.90;;;;;;5023647;28;20038;-67
2022/04/06 01:26:51;;;;;;;24.35;12.98;;;8.80;99.90;;;;;;5023288;28;20050;-67
2022/04/06 01:29:16;;;;;;;27.25;12.55;;;8.80;99.90;;;;;;5023511;28;20557;-67
2022/04/06 01:31:42;;;;;;;22.48;12.02;;;8.70;99.90;;;;;;5024663;28;20033;-67
2022/04/06 01:34:08;;;;;;;21.88;10.95;;;8.70;99.90;;;;;;5024647;28;20033;-66
2022/04/06 01:36:33;;;;;;;21.02;11.50;;;8.70;99.90;;;;;;5009531;28;20077;-66
2022/04/06 01:38:59;;;;;;;22.70;10.93;;;8.70;99.90;;;;;;5023196;28;20045;-66
2022/04/06 01:41:34;;;;;;;19.35;10.43;;;8.80;99.90;;;;;;5023167;28;20224;-67
2022/04/06 01:44:00;;;;;;;24.23;11.13;;;8.90;99.90;;;;;;5005340;28;20072;-67
2022/04/06 01:46:26;;;;;;;28.27;10.88;;;8.80;99.90;;;;;;5001945;28;20666;-67
2022/04/06 01:54:24;;;;;;;22.23;10.20;;;8.80;99.90;;;;;;5022681;28;20043;-67
2022/04/06 01:56:50;;;;;;;19.25;10.77;;;8.80;99.90;;;;;;5023143;28;20062;-67
2022/04/06 01:59:16;;;;;;;22.25;11.00;;;8.80;99.90;;;;;;5002589;28;20045;-67
2022/04/06 02:01:43;;;;;;;21.60;10.00;;;8.80;99.90;;;;;;5022638;28;20033;-67
2022/04/06 02:04:15;;;;;;;24.83;10.20;;;8.80;99.90;;;;;;5022450;28;20068;-67
2022/04/06 02:06:41;;;;;;;21.73;9.57;;;8.80;99.90;;;;;;5023641;28;20037;-67
2022/04/06 02:09:08;;;;;;;20.85;9.20;;;8.80;99.90;;;;;;5021621;28;20053;-67
2022/04/06 02:11:38;;;;;;;20.50;9.43;;;8.80;99.90;;;;;;5024297;28;20037;-67
2022/04/06 02:14:05;;;;;;;24.95;9.57;;;8.80;99.90;;;;;;5025166;28;20041;-67
2022/04/06 02:16:32;;;;;;;15.05;8.85;;;8.80;99.90;;;;;;5018264;28;20057;-67
2022/04/06 02:18:58;;;;;;;19.10;8.65;;;8.80;99.90;;;;;;5023458;28;20037;-67
2022/04/06 02:21:24;;;;;;;19.98;7.82;;;8.80;99.90;;;;;;5021964;28;20037;-67
2022/04/06 02:23:50;;;;;;;22.15;9.35;;;8.80;99.90;;;;;;5022917;28;20682;-67
2022/04/06 02:26:16;;;;;;;23.10;9.02;;;8.70;99.90;;;;;;5024583;28;20090;-67
2022/04/06 02:28:41;;;;;;;18.63;8.05;;;8.80;99.90;;;;;;5023449;28;20044;-67
2022/04/06 02:31:07;;;;;;;17.83;8.00;;;8.70;99.90;;;;;;5006962;28;20045;-67
2022/04/06 02:33:33;;;;;;;17.35;8.00;;;8.70;99.90;;;;;;5027230;28;20038;-67
2022/04/06 02:35:58;;;;;;;23.52;7.78;;;8.70;99.90;;;;;;5024533;28;20461;-67
2022/04/06 02:38:24;;;;;;;14.82;7.22;;;8.70;99.90;;;;;;5000454;28;20054;-67
2022/04/06 02:40:50;;;;;;;13.98;5.97;;;8.70;99.90;;;;;;5025253;28;20037;-67
2022/04/06 02:43:15;;;;;;;15.80;6.18;;;8.70;99.90;;;;;;4997414;28;20172;-67
2022/04/06 02:45:41;;;;;;;20.38;6.45;;;8.80;99.90;;;;;;5021811;28;20050;-67
2022/04/06 02:48:07;;;;;;;17.48;6.88;;;8.80;99.90;;;;;;5024184;28;20717;-67
2022/04/06 02:50:33;;;;;;;14.70;6.40;;;8.80;99.90;;;;;;5022068;28;20025;-67
2022/04/06 02:52:58;;;;;;;17.88;7.30;;;8.80;99.90;;;;;;5022501;28;20517;-67
2022/04/06 02:55:24;;;;;;;17.35;6.95;;;8.80;99.90;;;;;;5021511;28;20419;-67
2022/04/06 02:57:50;;;;;;;19.50;7.30;;;8.80;99.90;;;;;;5024769;28;20462;-67
2022/04/06 03:00:16;;;;;;;22.33;9.38;;;8.80;99.90;;;;;;5017607;28;20044;-67
2022/04/06 03:02:46;;;;;;;22.92;8.82;;;8.80;99.90;;;;;;5005192;28;20040;-67
2022/04/06 03:05:12;;;;;;;22.00;8.30;;;8.80;99.90;;;;;;5021254;28;20095;-67
2022/04/06 03:07:41;;;;;;;26.02;8.55;;;8.80;99.90;;;;;;5027600;28;20114;-67
2022/04/06 03:10:08;;;;;;;23.95;8.27;;;8.80;99.90;;;;;;5023392;28;20209;-67
2022/04/06 03:12:34;;;;;;;24.60;9.48;;;8.70;99.90;;;;;;5005349;28;20037;-67
2022/04/06 03:14:59;;;;;;;23.88;8.52;;;8.70;99.90;;;;;;5004332;28;20099;-67
2022/04/06 03:17:25;;;;;;;23.33;9.13;;;8.80;99.90;;;;;;5021348;28;20034;-67
2022/04/06 03:19:51;;;;;;;23.58;8.80;;;8.80;99.90;;;;;;5022153;28;20076;-67
2022/04/06 03:22:19;;;;;;;25.63;9.65;;;8.80;99.90;;;;;;5023010;28;20131;-67
2022/04/06 03:24:46;;;;;;;26.77;9.90;;;8.70;99.90;;;;;;5022039;28;20046;-67
2022/04/06 03:27:12;;;;;;;29.48;9.90;;;8.80;99.90;;;;;;5024092;28;20033;-67
2022/04/06 03:29:39;;;;;;;24.98;11.00;;;8.80;99.90;;;;;;5019222;28;20038;-67
2022/04/06 03:32:09;;;;;;;27.70;10.52;;;8.80;99.90;;;;;;5021058;28;20397;-67
2022/04/06 03:34:35;;;;;;;27.95;10.38;;;8.80;99.90;;;;;;4999833;28;20323;-67
2022/04/06 03:37:01;;;;;;;26.50;11.45;;;8.80;99.90;;;;;;5015455;28;20342;-67
2022/04/06 03:39:26;;;;;;;30.48;11.32;;;8.80;99.90;;;;;;5021502;28;20148;-67
2022/04/06 03:41:52;;;;;;;29.15;12.05;;;8.80;99.90;;;;;;5014215;28;20049;-67
2022/04/06 03:44:18;;;;;;;23.80;11.98;;;8.90;99.90;;;;;;5019193;28;20041;-67
2022/04/06 03:46:43;;;;;;;24.20;11.27;;;8.90;99.90;;;;;;5013690;28;20053;-67
2022/04/06 03:49:09;;;;;;;28.80;12.40;;;8.90;99.90;;;;;;5018988;28;20123;-67
2022/04/06 03:51:35;;;;;;;26.45;12.48;;;8.90;99.90;;;;;;5014993;28;20113;-67
2022/04/06 03:54:01;;;;;;;26.48;11.40;;;8.90;99.90;;;;;;5018716;28;20426;-67
2022/04/06 03:56:26;;;;;;;28.70;11.65;;;9.00;99.90;;;;;;5007562;28;20050;-67
2022/04/06 03:58:52;;;;;;;28.23;12.52;;;9.00;99.90;;;;;;5025301;28;20081;-67
2022/04/06 04:01:18;;;;;;;27.52;11.60;;;9.00;99.90;;;;;;5017780;28;20482;-67
2022/04/06 04:03:44;;;;;;;25.88;10.90;;;9.00;99.90;;;;;;5021975;28;20042;-67
2022/04/06 04:06:10;;;;;;;24.33;10.70;;;9.00;99.90;;;;;;5022066;28;20046;-67
2022/04/06 04:08:36;;;;;;;24.85;12.25;;;9.00;99.90;;;;;;5019576;28;20430;-67
2022/04/06 04:11:01;;;;;;;24.88;11.43;;;9.10;99.90;;;;;;5005194;28;20068;-67
2022/04/06 04:13:27;;;;;;;22.40;10.05;;;9.00;99.90;;;;;;5001478;28;20034;-67
2022/04/06 04:15:53;;;;;;;27.58;10.38;;;9.00;99.90;;;;;;5022911;28;20038;-67
2022/04/06 04:18:19;;;;;;;22.42;10.02;;;9.00;99.90;;;;;;4999067;28;20125;-67
2022/04/06 04:20:45;;;;;;;21.48;9.90;;;9.00;99.90;;;;;;5022698;28;20462;-67
2022/04/06 04:23:14;;;;;;;23.90;10.15;;;9.00;99.90;;;;;;5016777;28;20052;-68
2022/04/06 04:25:40;;;;;;;21.67;10.38;;;9.00;99.90;;;;;;5021091;28;20525;-67
2022/04/06 04:28:07;;;;;;;24.33;10.65;;;9.00;99.90;;;;;;4998199;28;20045;-67
2022/04/06 04:30:33;;;;;;;21.15;9.18;;;9.00;99.90;;;;;;4999895;28;20052;-67
2022/04/06 04:32:59;;;;;;;18.55;8.82;;;9.00;99.90;;;;;;5024313;28;20037;-67
2022/04/06 04:35:25;;;;;;;22.17;8.60;;;9.00;99.90;;;;;;5023762;28;20044;-67
2022/04/06 04:37:50;;;;;;;22.50;8.20;;;8.90;99.90;;;;;;5022024;28;20496;-68
2022/04/06 04:40:16;;;;;;;20.50;7.60;;;8.90;99.90;;;;;;5026758;28;20120;-67
2022/04/06 04:42:43;;;;;;;20.45;7.00;;;8.90;99.90;;;;;;5020199;28;20069;-67
2022/04/06 04:45:11;;;;;;;13.55;7.05;;;8.90;99.90;;;;;;5007649;28;20103;-68
2022/04/06 04:47:37;;;;;;;17.90;6.30;;;8.90;99.90;;;;;;5003264;28;20052;-67
2022/04/06 04:50:05;;;;;;;13.02;5.68;;;8.90;99.90;;;;;;5019914;28;20045;-68
2022/04/06 04:52:30;;;;;;;12.63;6.00;;;8.80;99.90;;;;;;5024861;28;20053;-68
2022/04/06 04:54:56;;;;;;;16.80;5.97;;;8.90;99.90;;;;;;5006813;28;20531;-67
2022/04/06 04:57:22;;;;;;;12.90;5.40;;;8.80;99.90;;;;;;5010294;28;20385;-67
2022/04/06 04:59:47;;;;;;;13.23;5.32;;;8.90;99.90;;;;;;5024549;28;20361;-67
2022/04/06 05:02:13;;;;;;;13.55;4.78;;;8.80;99.90;;;;;;5024973;28;20087;-67
2022/04/06 05:04:39;;;;;;;15.80;5.07;;;8.90;99.90;;;;;;5025340;28;20045;-67
2022/04/06 05:07:05;;;;;;;14.20;4.88;;;8.80;99.90;;;;;;5025198;28;20115;-67
2022/04/06 05:09:30;;;;;;;13.25;4.63;;;8.80;99.90;;;;;;5021332;28;20494;-67
2022/04/06 05:11:56;;;;;;;14.65;4.43;;;8.80;99.90;;;;;;5022766;28;20191;-67
2022/04/06 05:14:22;;;;;;;10.32;4.20;;;8.80;99.90;;;;;;5025705;28;20431;-67
2022/04/06 05:16:48;;;;;;;11.88;4.40;;;8.80;99.90;;;;;;5025306;28;20050;-67
2022/04/06 05:19:13;;;;;;;13.55;4.43;;;8.80;99.90;;;;;;5019258;28;20053;-67
2022/04/06 05:21:39;;;;;;;11.40;4.28;;;8.80;99.90;;;;;;5019173;28;20398;-67
2022/04/06 05:24:05;;;;;;;12.25;5.10;;;8.80;99.90;;;;;;5020699;28;20052;-67
2022/04/06 05:26:31;;;;;;;12.68;4.00;;;8.80;99.90;;;;;;5019003;28;20041;-67
2022/04/06 05:28:57;;;;;;;10.98;4.50;;;8.80;99.90;;;;;;5005478;28;20373;-67
2022/04/06 05:31:23;;;;;;;14.27;5.20;;;8.80;99.90;;;;;;5015829;28;20033;-67
2022/04/06 05:33:49;;;;;;;12.60;4.60;;;8.80;99.90;;;;;;5011425;28;20042;-67
2022/04/06 05:36:15;;;;;;;16.85;5.50;;;8.80;99.90;;;;;;5014172;28;20195;-66
2022/04/06 05:38:40;;;;;;;11.27;4.95;;;8.80;99.90;;;;;;5021812;28;20099;-67
2022/04/06 05:41:07;;;;;;;16.27;4.88;;;8.80;99.90;;;;;;5001328;28;20046;-67
2022/04/06 05:43:32;;;;;;;14.95;4.57;;;8.80;99.90;;;;;;5023205;28;20432;-67
2022/04/06 05:45:58;;;;;;;14.15;5.20;;;8.70;99.90;;;;;;5019062;28;20085;-66
2022/04/06 05:48:24;;;;;;;10.85;4.22;;;8.70;99.90;;;;;;5023731;28;20190;-66
2022/04/06 05:50:50;;;;;;;15.73;4.95;;;8.80;99.90;;;;;;5022277;28;20120;-66
2022/04/06 05:53:16;;;;;;;15.45;4.70;;;8.70;99.90;;;;;;5004574;28;20042;-66
2022/04/06 05:55:43;;;;;;;12.73;4.63;;;8.70;99.90;;;;;;5002765;28;20045;-67
2022/04/06 05:58:09;;;;;;;13.55;4.15;;;8.70;99.90;;;;;;5025290;28;20042;-67
2022/04/06 06:00:36;;;;;;;10.88;4.10;;;8.70;99.90;;;;;;5021924;28;20037;-67
2022/04/06 06:03:02;;;;;;;14.55;4.63;;;8.70;99.90;;;;;;5025661;28;20045;-67
2022/04/06 06:05:28;;;;;;;14.60;4.57;;;8.70;99.90;;;;;;5024040;28;20424;-67
2022/04/06 06:07:53;;;;;;;13.43;4.72;;;8.70;99.90;;;;;;5026171;28;20049;-66
2022/04/06 06:10:20;;;;;;;13.00;3.78;;;8.70;99.90;;;;;;5015844;28;20121;-66
2022/04/06 06:12:46;;;;;;;14.32;4.45;;;8.70;99.90;;;;;;5022846;28;20535;-67
2022/04/06 06:15:12;;;;;;;14.32;3.55;;;8.70;99.90;;;;;;5026187;28;20041;-67
2022/04/06 06:17:41;;;;;;;10.13;4.38;;;8.70;99.90;;;;;;5023510;28;20056;-67
2022/04/06 06:20:07;;;;;;;12.77;3.70;;;8.70;99.90;;;;;;5024693;28;20045;-67
2022/04/06 06:22:34;;;;;;;7.57;3.50;;;8.70;99.90;;;;;;5003862;28;20448;-67
2022/04/06 06:25:00;;;;;;;13.07;3.42;;;8.70;99.90;;;;;;4999783;28;20049;-67
2022/04/06 06:27:26;;;;;;;9.98;3.58;;;8.70;99.90;;;;;;5013553;28;20176;-67
2022/04/06 06:29:52;;;;;;;10.30;3.30;;;8.70;99.90;;;;;;5004410;28;20061;-67
2022/04/06 06:32:18;;;;;;;11.20;3.15;;;8.60;99.90;;;;;;5017595;28;20379;-67
2022/04/06 06:34:44;;;;;;;10.25;2.88;;;8.70;99.90;;;;;;5002768;28;20049;-67
2022/04/06 06:37:11;;;;;;;10.05;2.50;;;8.70;99.90;;;;;;5021286;28;20049;-67
2022/04/06 06:39:37;;;;;;;11.23;3.20;;;8.70;99.90;;;;;;5025943;28;20407;-67
2022/04/06 06:42:04;;;;;;;7.85;2.25;;;8.70;99.90;;;;;;5024798;28;20050;-67
2022/04/06 06:44:30;;;;;;;9.18;2.45;;;8.70;99.90;;;;;;5023922;28;20080;-67
2022/04/06 06:46:56;;;;;;;9.50;2.60;;;8.70;99.90;;;;;;5020463;28;20049;-67
2022/04/06 06:49:21;;;;;;;6.75;2.30;;;8.70;99.90;;;;;;5024654;28;20054;-67
2022/04/06 06:51:47;;;;;;;8.02;2.25;;;8.60;99.90;;;;;;5022264;28;20110;-67
2022/04/06 06:54:13;;;;;;;11.15;2.53;;;8.70;99.90;;;;;;5005379;28;20461;-67
2022/04/06 06:56:38;;;;;;;10.40;2.35;;;8.70;99.90;;;;;;5011048;28;20079;-67
2022/04/06 06:59:04;;;;;;;10.05;2.20;;;8.70;99.90;;;;;;5023062;28;20046;-67
2022/04/06 07:01:30;;;;;;;9.38;2.65;;;8.70;99.90;;;;;;5025664;28;20033;-67
2022/04/06 07:03:55;;;;;;;13.77;3.67;;;8.80;99.90;;;;;;5021468;28;20057;-67
2022/04/06 07:06:21;;;;;;;8.40;2.60;;;8.70;99.90;;;;;;5023057;28;20033;-67
2022/04/06 07:08:47;;;;;;;7.28;2.25;;;8.80;99.90;;;;;;5014666;28;20045;-67
2022/04/06 07:11:12;;;;;;;11.45;2.60;;;8.80;99.90;;;;;;5023545;28;20347;-67
2022/04/06 07:13:38;;;;;;;12.25;3.05;;;8.90;99.90;;;;;;5016065;28;20604;-67
2022/04/06 07:16:07;;;;;;;9.20;2.75;;;8.90;99.90;;;;;;5016199;28;20030;-67
2022/04/06 07:18:33;;;;;;;13.23;4.45;;;9.00;99.90;;;;;;5015542;28;20053;-66
2022/04/06 07:21:00;;;;;;;11.88;2.83;;;9.00;99.90;;;;;;5017235;28;20494;-67
2022/04/06 07:23:26;;;;;;;14.38;3.00;;;9.00;99.90;;;;;;5014984;28;20045;-67
2022/04/06 07:25:51;;;;;;;11.68;3.17;;;9.00;99.90;;;;;;5018950;28;20044;-67
2022/04/06 07:28:17;;;;;;;12.43;3.03;;;9.00;99.90;;;;;;4998146;28;20054;-67
2022/04/06 07:30:43;;;;;;;14.68;3.40;;;9.00;99.90;;;;;;5018380;28;20124;-67
2022/04/06 07:33:09;;;;;;;11.38;3.05;;;9.00;99.90;;;;;;5019486;28;20045;-67
2022/04/06 07:35:37;;;;;;;11.70;3.08;;;8.90;99.90;;;;;;5004292;28;20487;-67
2022/04/06 07:38:03;;;;;;;16.25;2.90;;;8.90;99.90;;;;;;5022307;28;20048;-67
2022/04/06 07:40:29;;;;;;;10.50;2.67;;;8.90;99.90;;;;;;5005268;28;20045;-67
2022/04/06 07:42:54;;;;;;;15.13;3.65;;;8.80;99.90;;;;;;5001613;28;20085;-67
2022/04/06 07:45:21;;;;;;;15.48;3.33;;;9.00;99.90;;;;;;5006062;28;20100;-67
2022/04/06 07:47:50;;;;;;;10.60;3.15;;;9.00;99.90;;;;;;5005067;28;20049;-67
2022/04/06 07:50:17;;;;;;;13.70;3.50;;;9.00;99.90;;;;;;5018170;28;20041;-66
2022/04/06 07:52:44;;;;;;;13.60;3.00;;;9.00;99.90;;;;;;5019213;28;20037;-67
2022/04/06 07:55:11;;;;;;;12.27;3.30;;;9.10;99.90;;;;;;5016313;28;20350;-67
2022/04/06 07:57:37;;;;;;;9.80;3.17;;;9.10;99.90;;;;;;5020882;28;20116;-67
2022/04/06 08:00:07;;;;;;;17.38;4.53;;;9.20;99.90;;;;;;5019938;28;20053;-67
2022/04/06 08:02:33;;;;;;;12.52;3.42;;;9.20;99.90;;;;;;5004441;28;20045;-67
2022/04/06 08:04:59;;;;;;;12.82;3.28;;;9.30;99.90;;;;;;5016593;28;20120;-67
2022/04/06 08:07:25;;;;;;;13.38;3.70;;;9.30;99.90;;;;;;5015970;28;20517;-68
2022/04/06 08:09:51;;;;;;;12.95;3.90;;;9.30;99.90;;;;;;5011931;28;20052;-67
2022/04/06 08:12:16;;;;;;;13.60;4.00;;;9.30;99.90;;;;;;5015865;28;20121;-68
2022/04/06 08:14:42;;;;;;;10.02;4.32;;;9.30;99.90;;;;;;5000949;28;20494;-68
2022/04/06 08:17:08;;;;;;;13.75;4.00;;;9.20;99.90;;;;;;5021899;28;20034;-68
2022/04/06 08:19:33;;;;;;;12.00;3.22;;;9.30;99.90;;;;;;5018849;28;20132;-68
2022/04/06 08:21:59;;;;;;;14.68;4.35;;;9.30;99.90;;;;;;5018590;28;20042;-67
2022/04/06 08:24:27;;;;;;;13.65;4.05;;;9.30;99.90;;;;;;5025616;28;20472;-67
2022/04/06 08:26:53;;;;;;;16.00;4.90;;;9.30;99.90;;;;;;5008214;28;20096;-68
2022/04/06 08:29:19;;;;;;;16.52;5.05;;;9.40;99.90;;;;;;5002352;28;20058;-67
2022/04/06 08:31:44;;;;;;;14.32;4.93;;;9.30;99.90;;;;;;5019586;28;20037;-68
2022/04/06 08:34:10;;;;;;;19.50;5.00;;;9.30;99.90;;;;;;5026237;28;20378;-67
2022/04/06 08:36:36;;;;;;;14.50;4.53;;;9.40;99.90;;;;;;5006489;28;20061;-67
2022/04/06 08:39:02;;;;;;;17.42;4.93;;;9.40;99.90;;;;;;5028405;28;20397;-67
2022/04/06 08:41:30;;;;;;;17.48;4.43;;;9.40;99.90;;;;;;5024107;28;20080;-67
2022/04/06 08:43:56;;;;;;;11.77;4.07;;;9.30;99.90;;;;;;5029360;28;20085;-68
2022/04/06 08:46:22;;;;;;;15.43;3.85;;;9.30;99.90;;;;;;5025284;28;20052;-68
2022/04/06 08:48:49;;;;;;;14.20;4.35;;;9.30;99.90;;;;;;5028585;28;20049;-68
2022/04/06 08:51:16;;;;;;;10.73;3.83;;;9.30;99.90;;;;;;5023229;28;20040;-68
2022/04/06 08:53:43;;;;;;;18.13;4.45;;;9.30;99.90;;;;;;5001832;28;20494;-68
2022/04/06 08:56:09;;;;;;;9.75;3.53;;;9.20;99.90;;;;;;5020183;28;20109;-68
2022/04/06 08:58:35;;;;;;;14.70;4.13;;;9.20;99.90;;;;;;5022160;28;20042;-68
2022/04/06 09:01:00;;;;;;;11.63;3.22;;;9.20;99.90;;;;;;4997387;28;20050;-68
2022/04/06 09:03:26;;;;;;;14.05;3.28;;;9.20;99.90;;;;;;5017382;28;20034;-68
2022/04/06 09:06:06;;;;;;;8.88;3.22;;;9.10;99.90;;;;;;4997111;28;20064;-68
2022/04/06 09:08:35;;;;;;;7.80;2.67;;;9.20;99.90;;;;;;5020221;28;20049;-68
2022/04/06 09:11:10;;;;;;;13.07;3.15;;;9.20;99.90;;;;;;4999755;28;20054;-68
2022/04/06 09:13:36;;;;;;;;;;;9.30;99.90;;;;;;5026875;28;20037;-68
2022/04/06 09:16:04;;;;;;;12.63;3.78;;;9.30;99.90;;;;;;5022150;28;19957;-68
2022/04/06 09:18:45;;;;;;;11.23;2.65;;;9.40;99.90;;;;;;5005519;28;20055;-68
2022/04/06 09:21:15;;;;;;;10.98;2.78;;;9.50;99.90;;;;;;5023076;28;20054;-68
2022/04/06 09:23:41;;;;;;;13.68;2.90;;;9.70;99.90;;;;;;5006214;28;20053;-68
2022/04/06 09:26:09;;;;;;;12.52;2.50;;;9.90;99.90;;;;;;5026874;28;20116;-68
2022/04/06 09:28:48;;;;;;;9.05;2.63;;;10.00;99.90;;;;;;5026670;28;20041;-68
2022/04/06 09:31:19;;;;;;;9.18;2.47;;;10.20;99.90;;;;;;5004312;28;20041;-68
2022/04/06 09:34:00;;;;;;;11.73;2.60;;;10.20;99.90;;;;;;5011862;28;20050;-68
2022/04/06 09:36:28;;;;;;;10.82;2.20;;;10.20;99.90;;;;;;5025878;28;20045;-68
2022/04/06 09:38:54;;;;;;;9.98;2.30;;;10.20;99.90;;;;;;5006936;28;20060;-68
2022/04/06 09:41:20;;;;;;;9.88;2.42;;;10.20;99.90;;;;;;5013485;28;20117;-68
2022/04/06 09:43:50;;;;;;;8.25;1.95;;;10.10;99.90;;;;;;5025391;28;20533;-68
2022/04/06 09:49:14;;;;;;;12.77;2.90;;;10.10;99.90;;;;;;5000479;28;20045;-68
2022/04/06 09:51:44;;;;;;;9.00;3.17;;;10.00;99.90;;;;;;5000816;28;20042;-68
2022/04/06 09:54:14;;;;;;;9.90;2.83;;;10.10;99.90;;;;;;5000298;28;20045;-68
2022/04/06 09:56:41;;;;;;;12.80;3.22;;;10.10;99.90;;;;;;5002982;28;20498;-68
2022/04/06 09:59:09;;;;;;;12.93;3.63;;;10.20;99.90;;;;;;5023631;28;20404;-69
2022/04/06 10:01:40;;;;;;;11.55;3.05;;;10.30;99.90;;;;;;5022967;28;20481;-68
2022/04/06 10:04:12;;;;;;;11.95;3.47;;;10.30;99.90;;;;;;5026952;28;20401;-68
2022/04/06 10:06:40;;;;;;;9.75;3.45;;;10.40;99.90;;;;;;5021452;28;20081;-69
2022/04/06 10:09:09;;;;;;;11.18;3.15;;;10.40;99.90;;;;;;5027831;28;20489;-69
2022/04/06 10:11:36;;;;;;;8.23;3.00;;;10.40;99.90;;;;;;5024415;28;20036;-68
2022/04/06 10:14:08;;;;;;;11.27;3.95;;;10.50;99.90;;;;;;5024631;28;20087;-68
2022/04/06 10:16:38;;;;;;;10.93;3.80;;;10.60;99.90;;;;;;5025331;28;20071;-68
2022/04/06 10:19:13;;;;;;;10.82;3.00;;;10.60;99.90;;;;;;5025038;28;20045;-68
2022/04/06 10:21:43;;;;;;;12.70;3.50;;;10.60;99.90;;;;;;5005050;28;20061;-68
2022/04/06 10:25:08;;;;;;;10.35;3.40;;;10.70;99.90;;;;;;5022211;28;20037;-68
2022/04/06 10:27:41;;;;;;;11.05;3.35;;;10.70;99.90;;;;;;4924185;29;20040;-68
2022/04/06 10:30:18;;;;;;;12.38;3.88;;;10.70;99.90;;;;;;4908603;29;20126;-68
2022/04/06 10:32:49;;;;;;;14.40;4.00;;;10.80;99.90;;;;;;4968663;28;20046;-68
2022/04/06 10:35:22;;;;;;;12.75;3.67;;;10.70;99.90;;;;;;5005517;28;20084;-69
2022/04/06 10:37:58;;;;;;;8.93;2.60;;;10.70;99.90;;;;;;5005233;28;20060;-69
2022/04/06 10:40:25;;;;;;;12.27;3.50;;;10.80;99.90;;;;;;5002462;28;20056;-69
2022/04/06 10:42:51;;;;;;;13.63;3.45;;;10.70;99.90;;;;;;5001066;28;20433;-69
2022/04/06 10:45:29;;;;;;;11.55;3.05;;;10.60;99.90;;;;;;5002855;28;20045;-69
2022/04/06 10:48:14;;;;;;;16.88;3.95;;;10.60;99.90;;;;;;5007330;28;20118;-69
2022/04/06 10:50:42;;;;;;;13.50;3.47;;;10.60;99.90;;;;;;5015602;28;20417;-69
2022/04/06 10:53:20;;;;;;;9.15;2.95;;;10.50;99.90;;;;;;5017085;28;20514;-69
2022/04/06 10:56:12;;;;;;;11.32;3.50;;;10.50;99.90;;;;;;5014080;28;20042;-69
2022/04/06 10:58:55;;;;;;;13.15;3.85;;;10.50;99.90;;;;;;5020492;28;20556;-69
2022/04/06 11:01:26;;;;;;;8.85;3.88;;;10.40;99.90;;;;;;5016293;28;20045;-69
2022/04/06 11:03:58;;;;;;;11.30;3.97;;;10.40;99.90;;;;;;5024298;28;20041;-69
2022/04/06 11:06:59;;;;;;;11.52;4.65;;;10.40;99.90;;;;;;4971808;28;20099;-68
2022/04/06 11:12:22;;;;;;;12.18;5.03;;;10.40;99.90;;;;;;5025335;28;20100;-68
2022/04/06 11:15:10;;;;;;;8.50;5.22;;;10.40;99.90;;;;;;5024576;28;20370;-69
2022/04/06 11:20:15;;;;;;;14.73;5.88;;;10.50;99.90;;;;;;5005225;28;20094;-68
2022/04/06 11:22:50;;;;;;;13.00;5.68;;;10.40;99.90;;;;;;5024824;28;20034;-68
2022/04/06 11:25:18;;;;;;;14.23;6.00;;;10.40;99.90;;;;;;5009101;28;20175;-68
2022/04/06 11:27:45;;;;;;;13.52;5.47;;;10.30;99.90;;;;;;5004634;28;20068;-68
2022/04/06 11:30:20;;;;;;;12.68;6.20;;;10.30;99.90;;;;;;5019275;28;20057;-68
2022/04/06 11:32:54;;;;;;;16.27;6.63;;;10.30;99.90;;;;;;5023233;28;20378;-68
2022/04/06 11:35:20;;;;;;;16.25;6.95;;;10.30;99.90;;;;;;5016507;28;20042;-68
2022/04/06 11:37:48;;;;;;;12.57;6.78;;;10.40;99.90;;;;;;5019019;28;20058;-68
2022/04/06 11:40:18;;;;;;;12.73;6.90;;;10.40;99.90;;;;;;5003981;28;20521;-68
2022/04/06 11:42:49;;;;;;;14.20;7.28;;;10.50;99.90;;;;;;5016640;28;20122;-68
2022/04/06 11:45:23;;;;;;;15.38;6.65;;;10.60;99.90;;;;;;5016241;28;20515;-68
2022/04/06 11:47:53;;;;;;;;;;;10.50;99.90;;;;;;4973937;28;20058;-68
2022/04/06 11:50:19;;;;;;;13.07;6.13;;;10.40;99.90;;;;;;4978324;28;20306;-68
2022/04/06 11:52:45;;;;;;;11.88;5.78;;;10.60;99.90;;;;;;4978624;28;20138;-68
2022/04/06 11:55:11;;;;;;;12.00;5.40;;;10.50;99.90;;;;;;4979100;28;20432;-68
2022/04/06 11:57:39;;;;;;;16.35;6.82;;;10.60;99.90;;;;;;4977183;28;20422;-68
2022/04/06 12:00:08;;;;;;;12.50;6.20;;;10.60;99.90;;;;;;4985597;28;20081;-68
2022/04/06 12:02:51;;;;;;;15.77;7.40;;;10.60;99.90;;;;;;4980548;28;20042;-68
2022/04/06 12:05:18;;;;;;;12.23;6.47;;;10.80;99.90;;;;;;4984952;28;20058;-68
2022/04/06 12:07:45;;;;;;;13.35;6.35;;;10.90;99.90;;;;;;4979183;28;20042;-68
2022/04/06 12:10:12;;;;;;;13.07;6.85;;;11.10;99.90;;;;;;4984230;28;20146;-68
2022/04/06 12:12:38;;;;;;;12.77;6.85;;;11.10;99.90;;;;;;4979737;28;20125;-68
2022/04/06 12:15:05;;;;;;;11.93;6.15;;;11.20;99.90;;;;;;4983227;28;20046;-68
2022/04/06 12:17:35;;;;;;;12.82;5.78;;;11.20;99.90;;;;;;4981360;28;20043;-67
2022/04/06 12:20:19;;;;;;;14.38;6.18;;;11.30;99.90;;;;;;4982519;28;20043;-68
2022/04/06 12:22:45;;;;;;;12.65;5.60;;;11.30;99.90;;;;;;4982340;28;20042;-68
2022/04/06 12:25:32;;;;;;;13.15;5.43;;;11.30;99.90;;;;;;4985408;28;20062;-68
2022/04/06 12:28:11;;;;;;;10.48;5.43;;;11.30;99.90;;;;;;4983075;28;20100;-68
2022/04/06 12:31:01;;;;;;;13.77;5.28;;;11.30;99.90;;;;;;4979640;28;20134;-68
2022/04/06 12:33:53;;;;;;;8.88;5.25;;;11.30;99.90;;;;;;4988337;28;20042;-68
2022/04/06 12:36:30;;;;;;;11.73;4.70;;;11.30;99.90;;;;;;4980152;28;20060;-68
2022/04/06 12:39:13;;;;;;;11.00;4.28;;;11.40;99.90;;;;;;4969069;28;20169;-68
2022/04/06 12:41:53;;;;;;;9.27;4.45;;;11.30;99.90;;;;;;4984724;28;20033;-68
2022/04/06 12:44:19;;;;;;;7.30;4.55;;;11.30;99.90;;;;;;4985532;28;20487;-68
2022/04/06 12:46:50;;;;;;;11.60;5.15;;;11.30;99.90;;;;;;5002782;28;20560;-68
2022/04/06 12:49:35;;;;;;;10.55;5.15;;;11.20;99.90;;;;;;5002643;28;20041;-68
2022/04/06 12:52:20;;;;;;;12.63;5.22;;;11.30;99.90;;;;;;5020611;28;20041;-68
2022/04/06 12:54:49;;;;;;;10.07;4.72;;;11.40;99.90;;;;;;5002552;28;20136;-68
2022/04/06 12:57:17;;;;;;;8.13;4.35;;;11.40;99.90;;;;;;5004581;28;20033;-68
2022/04/06 12:59:57;;;;;;;9.90;4.55;;;11.50;99.90;;;;;;5021199;28;20103;-68
2022/04/06 13:02:37;;;;;;;9.27;4.72;;;11.50;99.90;;;;;;5019865;28;20037;-68
2022/04/06 13:05:04;;;;;;;8.38;4.50;;;11.60;99.90;;;;;;5019982;28;20042;-69